Bouldin Island, California
Current Conditions -  °F | °C
As of 6:20 AM on Saturday 25 Oct 2014 (Local Time) from KSUU Reporting Station
Overcast Overcast  
Wind Chill: 61°   Ceiling: 3200
Heat Index: 61°   Visibility: 7mi
Dew Point: 61°   Wind: 14mph
Humidity: 100%   Direction: 220°SW
Pressure: 29.92"   Gusts: NA
Location:  38.1457°N, 121.624°W
Report Text: KSUU 251320Z AUTO 22012KT 7SM FEW006 OVC032 16/16 A2992 RMK AO2 RAB1312E1319 $
Loading
Personal Weather Stations






























Interactive Weather Map
Tropical Storm Tracking
New forecast layout! Learn more

10-Day Weather Forecast

Advertisements
Track Severe Weather on mobile